createdAt,value
2019-03-23T00:00:29.782Z,12.60
2019-03-23T00:10:33.028Z,12.60
2019-03-23T00:20:35.690Z,12.40
2019-03-23T00:30:38.696Z,12.40
2019-03-23T00:40:41.385Z,12.30
2019-03-23T00:50:43.894Z,12.20
2019-03-23T01:00:47.634Z,12.10
2019-03-23T01:10:50.288Z,12.00
2019-03-23T01:20:53.051Z,11.90
2019-03-23T01:30:55.564Z,11.50
2019-03-23T01:40:58.146Z,11.20
2019-03-23T01:51:01.179Z,10.90
2019-03-23T02:01:04.357Z,10.70
2019-03-23T02:11:06.364Z,10.10
2019-03-23T02:21:09.170Z,9.60
2019-03-23T02:31:11.856Z,9.50
2019-03-23T02:41:14.829Z,9.20
2019-03-23T02:51:17.319Z,9.20
2019-03-23T03:01:19.978Z,9.30
2019-03-23T03:11:22.794Z,9.10
2019-03-23T03:21:25.302Z,9.00
2019-03-23T03:31:27.757Z,9.20
2019-03-23T03:41:30.699Z,9.30
2019-03-23T03:51:33.827Z,9.20
2019-03-23T04:01:35.697Z,9.30
2019-03-23T04:11:38.787Z,9.40
2019-03-23T04:21:40.588Z,9.50
2019-03-23T04:31:43.244Z,9.50
2019-03-23T04:41:45.737Z,9.60
2019-03-23T04:51:48.387Z,9.70
2019-03-23T05:01:53.024Z,9.70
2019-03-23T05:11:55.769Z,9.80
2019-03-23T05:21:58.271Z,9.90
2019-03-23T05:32:00.851Z,10.00
2019-03-23T05:42:03.621Z,10.00
2019-03-23T05:52:06.327Z,10.10
2019-03-23T06:02:09.220Z,10.10
2019-03-23T06:12:11.901Z,10.20
2019-03-23T06:22:14.844Z,10.20
2019-03-23T06:32:17.724Z,10.20
2019-03-23T06:42:20.280Z,10.30
2019-03-23T06:52:23.197Z,10.20
2019-03-23T07:02:25.684Z,10.20
2019-03-23T07:12:30.542Z,10.40
2019-03-23T07:22:33.270Z,10.40
2019-03-23T07:32:37.442Z,10.60
2019-03-23T07:42:40.959Z,10.90
2019-03-23T07:52:43.466Z,11.00
2019-03-23T08:02:47.159Z,11.20
2019-03-23T08:12:49.654Z,11.50
2019-03-23T08:22:52.894Z,11.60
2019-03-23T08:32:55.859Z,11.70
2019-03-23T08:42:58.870Z,11.90
2019-03-23T08:53:01.453Z,12.00
2019-03-23T09:03:04.551Z,12.10
2019-03-23T09:13:06.243Z,12.00
2019-03-23T09:23:09.354Z,12.10
2019-03-23T09:33:11.053Z,12.30
2019-03-23T09:43:13.864Z,12.10
2019-03-23T09:53:17.109Z,12.10
2019-03-23T10:03:20.238Z,12.00
2019-03-23T10:13:25.162Z,12.00
2019-03-23T10:23:27.914Z,12.00
2019-03-23T10:33:31.827Z,12.20
2019-03-23T10:43:34.655Z,13.30
2019-03-23T10:53:37.383Z,14.70
2019-03-23T11:03:43.318Z,14.40
2019-03-23T11:13:45.851Z,14.10
2019-03-23T11:23:48.336Z,14.80
2019-03-23T11:33:51.140Z,15.40
2019-03-23T11:43:52.793Z,15.80
2019-03-23T11:53:55.337Z,16.20
2019-03-23T12:03:58.077Z,16.50
2019-03-23T12:14:01.119Z,16.50
2019-03-23T12:24:05.312Z,15.90
2019-03-23T12:34:08.266Z,15.70
2019-03-23T12:44:11.267Z,16.70
2019-03-23T12:54:13.802Z,16.10
2019-03-23T13:04:16.337Z,15.20
2019-03-23T13:14:19.207Z,14.90
2019-03-23T13:24:26.837Z,14.90
2019-03-23T13:34:29.875Z,14.80
2019-03-23T13:44:32.675Z,15.10
2019-03-23T13:54:34.344Z,15.40
2019-03-23T14:04:37.426Z,15.60
2019-03-23T14:14:41.089Z,15.50
2019-03-23T14:24:45.996Z,15.60
2019-03-23T14:34:48.669Z,15.30
2019-03-23T14:44:50.713Z,15.20
2019-03-23T14:54:53.587Z,14.90
2019-03-23T15:04:55.273Z,14.50
2019-03-23T15:14:57.972Z,14.10
2019-03-23T15:25:02.749Z,14.00
2019-03-23T15:35:05.678Z,13.80
2019-03-23T15:45:08.925Z,14.00
2019-03-23T15:55:11.899Z,14.00
2019-03-23T16:05:14.436Z,13.90
2019-03-23T16:15:36.107Z,13.80
2019-03-23T16:25:38.830Z,13.60
2019-03-23T16:35:41.689Z,13.40
2019-03-23T16:45:44.314Z,13.30
2019-03-23T16:55:47.015Z,13.20
2019-03-23T17:05:49.886Z,13.10
2019-03-23T17:15:53.422Z,13.00
2019-03-23T17:25:56.464Z,12.80
2019-03-23T17:35:58.526Z,12.70
2019-03-23T17:46:01.304Z,12.70
2019-03-23T17:56:06.398Z,12.70
2019-03-23T18:06:10.957Z,12.60
2019-03-23T18:16:13.705Z,12.60
2019-03-23T18:26:17.048Z,12.50
2019-03-23T18:36:19.527Z,12.50
2019-03-23T18:46:24.545Z,12.60
2019-03-23T18:56:27.592Z,12.50
2019-03-23T19:06:32.019Z,12.40
2019-03-23T19:16:34.949Z,12.30
2019-03-23T19:26:37.643Z,12.20
2019-03-23T19:36:41.283Z,12.20
2019-03-23T19:46:45.033Z,12.10
2019-03-23T19:56:47.619Z,12.10
2019-03-23T20:06:50.702Z,12.00
2019-03-23T20:16:52.686Z,12.00
2019-03-23T20:26:55.222Z,12.00
2019-03-23T20:36:57.929Z,11.90
2019-03-23T20:47:00.798Z,11.90
2019-03-23T20:57:03.967Z,11.90
2019-03-23T21:17:20.655Z,12.00
2019-03-23T21:27:23.155Z,11.90
2019-03-23T21:37:25.652Z,11.90
2019-03-23T21:47:28.439Z,11.80
2019-03-23T21:57:31.891Z,11.90
2019-03-23T22:07:34.414Z,11.90
2019-03-23T22:17:37.082Z,11.90
2019-03-23T22:27:39.648Z,11.90
2019-03-23T22:37:42.146Z,11.90
2019-03-23T22:47:44.840Z,11.80
2019-03-23T22:57:47.819Z,11.80
2019-03-23T23:07:49.831Z,11.60
2019-03-23T23:17:52.402Z,11.60
2019-03-23T23:27:54.895Z,11.50
2019-03-23T23:37:58.030Z,11.50
2019-03-23T23:48:01.170Z,11.50
2019-03-23T23:58:03.770Z,11.40
